createdAt,value
2016-10-17T00:00:03.831Z,87.81
2016-10-17T00:00:25.559Z,89.06
2016-10-17T00:00:47.281Z,88.83
2016-10-17T00:01:09.001Z,88.65
2016-10-17T00:01:30.726Z,88.50
2016-10-17T00:01:52.445Z,89.34
2016-10-17T00:02:14.164Z,88.90
2016-10-17T00:02:35.895Z,88.84
2016-10-17T00:02:57.614Z,88.97
2016-10-17T00:03:19.345Z,89.09
2016-10-17T00:03:41.083Z,89.01
2016-10-17T00:04:02.805Z,88.83
2016-10-17T00:04:24.524Z,88.86
2016-10-17T00:04:46.245Z,88.47
2016-10-17T00:05:07.980Z,88.91
2016-10-17T00:05:29.696Z,88.17
2016-10-17T00:05:51.420Z,87.18
2016-10-17T00:06:13.138Z,87.08
2016-10-17T00:06:34.867Z,88.00
2016-10-17T00:06:56.589Z,88.87
2016-10-17T00:07:18.310Z,88.94
2016-10-17T00:07:40.027Z,89.55
2016-10-17T00:08:01.753Z,89.26
2016-10-17T00:08:23.469Z,89.39
2016-10-17T00:08:45.190Z,89.28
2016-10-17T00:09:06.915Z,89.52
2016-10-17T00:09:28.636Z,89.39
2016-10-17T00:09:50.371Z,89.30
2016-10-17T00:10:12.094Z,89.24
2016-10-17T00:10:33.808Z,88.78
2016-10-17T00:10:55.533Z,88.53
2016-10-17T00:11:17.249Z,88.91
2016-10-17T00:11:38.965Z,89.13
2016-10-17T00:12:00.689Z,88.92
2016-10-17T00:12:22.432Z,88.73
2016-10-17T00:12:44.157Z,88.25
2016-10-17T00:13:05.878Z,88.41
2016-10-17T00:13:27.603Z,88.56
2016-10-17T00:13:49.330Z,88.76
2016-10-17T00:14:11.045Z,88.77
2016-10-17T00:14:32.898Z,88.84
2016-10-17T00:14:54.559Z,88.57
2016-10-17T00:15:16.297Z,88.43
2016-10-17T00:15:38.023Z,88.29
2016-10-17T00:15:59.739Z,88.97
2016-10-17T00:16:21.455Z,89.06
2016-10-17T00:16:43.188Z,88.85
2016-10-17T00:17:04.911Z,88.77
2016-10-17T00:17:26.633Z,88.86
2016-10-17T00:17:48.352Z,89.00
2016-10-17T00:18:10.073Z,88.91
2016-10-17T00:18:31.795Z,88.50
2016-10-17T00:18:53.509Z,88.56
2016-10-17T00:19:15.296Z,88.58
2016-10-17T00:19:37.016Z,88.21
2016-10-17T00:19:58.734Z,88.59
2016-10-17T00:20:20.448Z,88.97
2016-10-17T00:20:42.171Z,89.01
2016-10-17T00:21:03.895Z,88.75
2016-10-17T00:21:25.620Z,88.46
2016-10-17T00:21:47.336Z,88.60
2016-10-17T00:22:09.059Z,88.58
2016-10-17T00:22:30.790Z,88.96
2016-10-17T00:22:52.513Z,89.21
2016-10-17T00:23:14.233Z,89.31
2016-10-17T00:23:35.951Z,89.46
2016-10-17T00:23:57.673Z,89.22
2016-10-17T00:24:19.398Z,89.37
2016-10-17T00:24:41.122Z,89.17
2016-10-17T00:25:02.841Z,88.88
2016-10-17T00:25:24.555Z,88.54
2016-10-17T00:25:46.293Z,88.38
2016-10-17T00:26:08.025Z,88.44
2016-10-17T00:26:29.746Z,88.25
2016-10-17T00:26:51.462Z,88.33
2016-10-17T00:27:13.188Z,88.36
2016-10-17T00:27:34.914Z,88.43
2016-10-17T00:27:56.644Z,88.24
2016-10-17T00:28:18.368Z,87.90
2016-10-17T00:28:40.096Z,88.04
2016-10-17T00:29:01.821Z,88.15
2016-10-17T00:29:23.539Z,88.21
2016-10-17T00:29:45.259Z,87.96
2016-10-17T00:30:06.981Z,88.29
2016-10-17T00:30:28.706Z,88.49
2016-10-17T00:30:50.432Z,88.64
2016-10-17T00:31:12.146Z,88.79
2016-10-17T00:31:33.861Z,89.20
2016-10-17T00:31:55.594Z,89.31
2016-10-17T00:32:18.321Z,88.95
2016-10-17T00:32:40.041Z,89.00
2016-10-17T00:33:01.765Z,88.98
2016-10-17T00:33:23.484Z,89.19
2016-10-17T00:33:45.203Z,89.13
2016-10-17T00:34:06.938Z,89.58
2016-10-17T00:34:28.664Z,89.40
2016-10-17T00:34:50.383Z,89.32
2016-10-17T00:35:12.104Z,89.03
2016-10-17T00:35:33.824Z,89.08
2016-10-17T00:35:55.555Z,89.54
2016-10-17T00:36:17.277Z,89.25
2016-10-17T00:36:38.997Z,89.37
2016-10-17T00:37:00.726Z,89.53
2016-10-17T00:37:22.450Z,89.51
2016-10-17T00:37:44.175Z,89.68
2016-10-17T00:38:05.907Z,89.71
2016-10-17T00:38:27.625Z,89.42
2016-10-17T00:38:49.346Z,89.00
2016-10-17T00:39:11.186Z,88.72
2016-10-17T00:39:32.916Z,88.72
2016-10-17T00:39:54.648Z,88.42
2016-10-17T00:40:16.366Z,88.21
2016-10-17T00:40:38.083Z,88.23
2016-10-17T00:40:59.805Z,88.66
2016-10-17T00:41:21.544Z,88.82
2016-10-17T00:41:43.263Z,88.91
2016-10-17T00:42:04.990Z,88.50
2016-10-17T00:42:26.721Z,88.53
2016-10-17T00:42:50.448Z,88.42
2016-10-17T00:43:12.278Z,88.43
2016-10-17T00:43:34.003Z,88.47
2016-10-17T00:43:55.717Z,88.70
2016-10-17T00:44:17.438Z,89.14
2016-10-17T00:44:39.159Z,89.39
2016-10-17T00:45:00.881Z,89.72
2016-10-17T00:45:22.611Z,89.55
2016-10-17T00:45:44.349Z,89.22
2016-10-17T00:46:06.066Z,88.98
2016-10-17T00:46:27.784Z,88.63
2016-10-17T00:46:49.510Z,88.89
2016-10-17T00:47:11.234Z,89.18
2016-10-17T00:47:32.971Z,89.25
2016-10-17T00:47:54.688Z,89.17
2016-10-17T00:48:16.403Z,88.69
2016-10-17T00:48:38.131Z,88.60
2016-10-17T00:48:59.857Z,88.38
2016-10-17T00:49:21.570Z,88.29
2016-10-17T00:49:43.288Z,87.96
2016-10-17T00:50:05.117Z,88.07
2016-10-17T00:50:26.834Z,88.31
2016-10-17T00:50:48.555Z,88.19
2016-10-17T00:51:10.279Z,88.23
2016-10-17T00:51:31.997Z,88.50
2016-10-17T00:51:53.720Z,88.76
2016-10-17T00:52:15.446Z,88.96
2016-10-17T00:52:37.166Z,88.83
2016-10-17T00:52:58.885Z,88.80
2016-10-17T00:53:20.604Z,88.87
2016-10-17T00:53:42.325Z,88.55
2016-10-17T00:54:04.046Z,88.37
2016-10-17T00:54:25.839Z,88.78
2016-10-17T00:54:47.559Z,88.73
2016-10-17T00:55:09.278Z,88.79
2016-10-17T00:55:31.013Z,88.64
2016-10-17T00:55:52.735Z,88.54
2016-10-17T00:56:14.463Z,88.64
2016-10-17T00:56:36.202Z,88.64
2016-10-17T00:56:57.921Z,88.94
2016-10-17T00:57:19.635Z,89.31
2016-10-17T00:57:41.355Z,89.63
2016-10-17T00:58:03.070Z,89.71
2016-10-17T00:58:24.781Z,89.45
2016-10-17T00:58:46.510Z,89.52
2016-10-17T00:59:08.239Z,90.22
2016-10-17T00:59:29.946Z,90.29
2016-10-17T00:59:51.669Z,90.71
2016-10-17T01:00:13.395Z,91.07
2016-10-17T01:00:35.116Z,91.28
2016-10-17T01:00:56.837Z,91.43
2016-10-17T01:01:21.366Z,91.59
2016-10-17T01:01:43.098Z,91.80
2016-10-17T01:02:04.815Z,92.10
2016-10-17T01:02:26.530Z,91.97
2016-10-17T01:02:48.258Z,91.86
2016-10-17T01:03:09.985Z,92.01
2016-10-17T01:03:31.704Z,91.98
2016-10-17T01:03:53.419Z,92.02
2016-10-17T01:04:15.140Z,92.15
2016-10-17T01:04:36.863Z,92.09
2016-10-17T01:04:58.654Z,92.03
2016-10-17T01:05:20.371Z,92.15
2016-10-17T01:05:42.101Z,92.16
2016-10-17T01:06:03.821Z,92.09
2016-10-17T01:06:25.538Z,92.09
2016-10-17T01:06:47.256Z,92.13
2016-10-17T01:07:08.994Z,92.12
2016-10-17T01:07:30.717Z,92.04
2016-10-17T01:07:52.442Z,91.85
2016-10-17T01:08:14.160Z,91.76
2016-10-17T01:08:35.878Z,91.40
2016-10-17T01:08:57.602Z,91.25
2016-10-17T01:09:19.323Z,91.14
2016-10-17T01:09:41.064Z,90.86
2016-10-17T01:10:02.787Z,90.31
2016-10-17T01:10:24.506Z,90.01
2016-10-17T01:10:46.224Z,89.80
2016-10-17T01:11:07.950Z,90.10
2016-10-17T01:11:29.666Z,90.48
2016-10-17T01:11:51.379Z,90.77
2016-10-17T01:12:13.106Z,90.70
2016-10-17T01:12:34.832Z,90.62
2016-10-17T01:12:56.547Z,90.51
2016-10-17T01:13:18.262Z,90.54
2016-10-17T01:13:39.994Z,90.61
2016-10-17T01:14:01.708Z,90.70
2016-10-17T01:14:23.433Z,90.96
2016-10-17T01:14:45.150Z,91.26
2016-10-17T01:15:06.878Z,91.54
2016-10-17T01:15:28.597Z,91.58
2016-10-17T01:15:50.322Z,91.74
2016-10-17T01:16:12.047Z,91.70
2016-10-17T01:16:33.761Z,91.37
2016-10-17T01:16:55.476Z,90.69
2016-10-17T01:17:17.201Z,90.39
2016-10-17T01:17:38.925Z,89.99
2016-10-17T01:18:00.651Z,89.78
2016-10-17T01:18:22.400Z,89.47
2016-10-17T01:18:44.100Z,89.14
2016-10-17T01:19:05.818Z,89.15
2016-10-17T01:19:27.536Z,89.20
2016-10-17T01:19:49.252Z,89.47
2016-10-17T01:20:10.971Z,89.94
2016-10-17T01:20:32.685Z,90.44
2016-10-17T01:20:54.417Z,91.18
2016-10-17T01:21:16.143Z,91.53
2016-10-17T01:21:37.858Z,91.31
2016-10-17T01:21:59.581Z,91.14
2016-10-17T01:22:21.297Z,90.76
2016-10-17T01:22:43.036Z,90.38
2016-10-17T01:23:04.777Z,90.24
2016-10-17T01:23:26.491Z,90.26
2016-10-17T01:23:48.209Z,90.13
2016-10-17T01:24:09.929Z,89.86
2016-10-17T01:24:31.650Z,89.96
2016-10-17T01:24:53.372Z,90.13
2016-10-17T01:25:15.089Z,90.02
2016-10-17T01:25:36.808Z,89.92
2016-10-17T01:25:58.534Z,90.24
2016-10-17T01:26:20.252Z,90.72
2016-10-17T01:26:41.975Z,91.07
2016-10-17T01:27:03.693Z,91.07
2016-10-17T01:27:25.412Z,91.28
2016-10-17T01:27:47.128Z,91.38
2016-10-17T01:28:08.845Z,91.78
2016-10-17T01:28:30.559Z,91.98
2016-10-17T01:28:52.272Z,92.09
2016-10-17T01:29:13.990Z,92.26
2016-10-17T01:29:35.712Z,91.80
2016-10-17T01:29:57.494Z,91.32
2016-10-17T01:30:19.220Z,90.80
2016-10-17T01:30:40.939Z,90.28
2016-10-17T01:31:02.656Z,90.12
2016-10-17T01:31:24.377Z,90.16
2016-10-17T01:31:46.096Z,89.85
2016-10-17T01:32:07.813Z,89.77
2016-10-17T01:32:29.529Z,89.73
2016-10-17T01:32:51.247Z,89.55
2016-10-17T01:33:12.964Z,89.46
2016-10-17T01:33:34.684Z,89.82
2016-10-17T01:33:56.400Z,90.18
2016-10-17T01:34:18.135Z,90.45
2016-10-17T01:34:39.855Z,90.67
2016-10-17T01:35:01.572Z,90.87
2016-10-17T01:35:23.298Z,90.98
2016-10-17T01:35:45.027Z,91.12
2016-10-17T01:36:06.780Z,91.24
2016-10-17T01:36:28.481Z,91.39
2016-10-17T01:36:50.206Z,90.92
2016-10-17T01:37:38.439Z,90.63
2016-10-17T01:38:00.159Z,90.77
2016-10-17T01:38:21.885Z,90.68
2016-10-17T01:38:43.601Z,90.60
2016-10-17T01:39:05.323Z,90.60
2016-10-17T01:39:27.035Z,90.28
2016-10-17T01:39:48.752Z,90.02
2016-10-17T01:40:10.565Z,90.18
2016-10-17T01:40:32.280Z,90.15
2016-10-17T01:40:54.002Z,90.18
2016-10-17T01:41:15.716Z,90.39
2016-10-17T01:41:37.435Z,89.71
2016-10-17T01:41:59.156Z,90.44
2016-10-17T01:42:20.876Z,90.79
2016-10-17T01:42:42.597Z,91.18
2016-10-17T01:43:04.315Z,91.31
2016-10-17T01:43:26.043Z,91.62
2016-10-17T01:43:47.773Z,91.77
2016-10-17T01:44:09.487Z,91.94
2016-10-17T01:44:31.208Z,92.11
2016-10-17T01:44:52.938Z,92.34
2016-10-17T01:45:14.643Z,92.48
2016-10-17T01:45:36.365Z,92.23
2016-10-17T01:45:58.084Z,92.15
2016-10-17T01:46:19.808Z,92.61
2016-10-17T01:46:41.532Z,92.48
2016-10-17T01:47:03.256Z,92.37
2016-10-17T01:47:24.975Z,92.29
2016-10-17T01:47:46.693Z,92.54
2016-10-17T01:48:08.413Z,92.52
2016-10-17T01:48:30.151Z,92.60
2016-10-17T01:48:51.891Z,92.53
2016-10-17T01:49:13.621Z,92.49
2016-10-17T01:49:35.338Z,92.20
2016-10-17T01:49:57.058Z,91.98
2016-10-17T01:50:18.783Z,91.46
2016-10-17T01:50:40.499Z,90.77
2016-10-17T01:51:02.220Z,90.25
2016-10-17T01:51:23.935Z,89.82
2016-10-17T01:51:45.665Z,89.77
2016-10-17T01:52:07.390Z,89.49
2016-10-17T01:52:29.108Z,89.38
2016-10-17T01:52:50.823Z,89.31
2016-10-17T01:53:12.554Z,89.04
2016-10-17T01:53:34.282Z,88.63
2016-10-17T01:53:56.204Z,88.51
2016-10-17T01:54:17.927Z,88.38
2016-10-17T01:54:39.638Z,88.19
2016-10-17T01:55:01.357Z,88.01
2016-10-17T01:55:23.077Z,88.15
2016-10-17T01:55:44.794Z,88.49
2016-10-17T01:56:06.515Z,88.32
2016-10-17T01:56:28.234Z,88.32
2016-10-17T01:56:49.950Z,88.40
2016-10-17T01:57:11.668Z,88.53
2016-10-17T01:57:33.386Z,88.52
2016-10-17T01:57:55.129Z,88.42
2016-10-17T01:58:16.848Z,88.37
2016-10-17T01:58:38.569Z,88.57
2016-10-17T01:59:00.292Z,88.50
2016-10-17T01:59:22.018Z,88.39
2016-10-17T01:59:43.740Z,88.39
2016-10-17T02:00:05.522Z,88.25
2016-10-17T02:00:27.241Z,87.97
2016-10-17T02:00:48.967Z,88.16
2016-10-17T02:01:10.681Z,88.37
2016-10-17T02:01:32.404Z,88.48
2016-10-17T02:01:54.118Z,88.71
2016-10-17T02:02:15.838Z,88.93
2016-10-17T02:02:37.572Z,89.04
2016-10-17T02:02:59.286Z,88.80
2016-10-17T02:03:21.016Z,88.76
2016-10-17T02:03:42.741Z,89.05
2016-10-17T02:04:04.469Z,89.00
2016-10-17T02:04:26.184Z,89.08
2016-10-17T02:04:48.040Z,88.95
2016-10-17T02:05:09.756Z,89.12
2016-10-17T02:05:31.474Z,89.45
2016-10-17T02:05:53.196Z,89.74
2016-10-17T02:06:14.909Z,90.09
2016-10-17T02:06:36.625Z,90.33
2016-10-17T02:06:58.340Z,90.39
2016-10-17T02:07:20.069Z,90.62
2016-10-17T02:07:41.796Z,90.76
2016-10-17T02:08:03.510Z,90.96
2016-10-17T02:08:25.239Z,90.92
2016-10-17T02:08:46.954Z,90.95
2016-10-17T02:09:08.672Z,91.00
2016-10-17T02:09:30.393Z,91.02
2016-10-17T02:09:52.110Z,91.08
2016-10-17T02:10:13.842Z,91.10
2016-10-17T02:10:35.557Z,90.93
2016-10-17T02:10:57.274Z,90.73
2016-10-17T02:11:18.989Z,90.46
2016-10-17T02:11:40.709Z,90.39
2016-10-17T02:12:02.424Z,90.28
2016-10-17T02:12:24.147Z,89.97
2016-10-17T02:12:45.862Z,89.84
2016-10-17T02:13:07.585Z,89.78
2016-10-17T02:13:29.311Z,89.66
2016-10-17T02:13:51.024Z,89.43
2016-10-17T02:14:12.747Z,89.52
2016-10-17T02:14:34.463Z,89.66
2016-10-17T02:14:56.188Z,89.42
2016-10-17T02:15:17.912Z,89.21
2016-10-17T02:15:39.649Z,89.34
2016-10-17T02:16:01.370Z,89.24
2016-10-17T02:16:23.088Z,89.46
2016-10-17T02:16:44.805Z,89.53
2016-10-17T02:17:06.530Z,89.60
2016-10-17T02:17:28.250Z,89.24
2016-10-17T02:17:49.965Z,89.02
2016-10-17T02:18:11.682Z,89.07
2016-10-17T02:18:33.401Z,89.26
2016-10-17T02:18:55.134Z,89.29
2016-10-17T02:19:16.855Z,89.32
2016-10-17T02:19:38.572Z,89.38
2016-10-17T02:20:00.288Z,89.70
2016-10-17T02:20:22.001Z,89.76
2016-10-17T02:20:43.719Z,89.78
2016-10-17T02:21:05.435Z,89.80
2016-10-17T02:21:27.149Z,89.81
2016-10-17T02:21:48.881Z,89.80
2016-10-17T02:22:10.595Z,89.99
2016-10-17T02:22:32.317Z,90.01
2016-10-17T02:22:54.036Z,90.11
2016-10-17T02:23:15.775Z,90.31
2016-10-17T02:23:37.491Z,90.45
2016-10-17T02:23:59.226Z,90.23
2016-10-17T02:24:20.949Z,90.26
2016-10-17T02:24:42.670Z,90.07
2016-10-17T02:25:04.515Z,89.86
2016-10-17T02:25:26.234Z,89.30
2016-10-17T02:25:47.965Z,89.17
2016-10-17T02:26:09.681Z,88.90
2016-10-17T02:26:31.401Z,88.62
2016-10-17T02:26:53.119Z,88.74
2016-10-17T02:27:14.852Z,88.73
2016-10-17T02:27:36.579Z,88.54
2016-10-17T02:27:58.290Z,88.54
2016-10-17T02:28:20.004Z,88.66
2016-10-17T02:28:41.730Z,88.64
2016-10-17T02:29:03.455Z,88.75
2016-10-17T02:29:25.216Z,88.88
2016-10-17T02:29:46.937Z,88.80
2016-10-17T02:30:08.657Z,88.90
2016-10-17T02:30:30.380Z,88.88
2016-10-17T02:30:52.088Z,88.60
2016-10-17T02:31:13.812Z,88.45
2016-10-17T02:31:35.525Z,88.25
2016-10-17T02:31:57.248Z,88.28
2016-10-17T02:32:18.967Z,88.02
2016-10-17T02:32:40.687Z,88.30
2016-10-17T02:33:02.415Z,88.32
2016-10-17T02:33:24.135Z,88.23
2016-10-17T02:33:45.853Z,88.14
2016-10-17T02:34:07.579Z,88.06
2016-10-17T02:34:29.298Z,87.98
2016-10-17T02:34:51.032Z,87.70
2016-10-17T02:35:12.754Z,87.48
2016-10-17T02:35:34.476Z,87.59
2016-10-17T02:35:56.191Z,87.86
2016-10-17T02:36:17.935Z,88.05
2016-10-17T02:36:39.664Z,88.47
2016-10-17T02:37:01.385Z,88.73
2016-10-17T02:37:23.110Z,88.85
2016-10-17T02:37:44.829Z,88.83
2016-10-17T02:38:06.559Z,88.44
2016-10-17T02:38:28.302Z,88.47
2016-10-17T02:38:50.022Z,88.25
2016-10-17T02:39:11.746Z,87.72
2016-10-17T02:39:33.467Z,87.45
2016-10-17T02:39:55.191Z,87.18
2016-10-17T02:40:16.909Z,87.34
2016-10-17T02:40:38.637Z,87.20
2016-10-17T02:41:00.358Z,87.03
2016-10-17T02:41:22.077Z,86.96
2016-10-17T02:41:43.801Z,86.67
2016-10-17T02:42:05.515Z,86.60
2016-10-17T02:42:27.231Z,86.58
2016-10-17T02:42:48.951Z,86.77
2016-10-17T02:43:15.442Z,87.11
2016-10-17T02:43:37.165Z,87.65
2016-10-17T02:43:58.883Z,88.16
2016-10-17T02:44:20.601Z,88.67
2016-10-17T02:44:42.324Z,89.03
2016-10-17T02:45:04.054Z,89.13
2016-10-17T02:45:25.785Z,88.82
2016-10-17T02:45:47.506Z,88.19
2016-10-17T02:46:09.228Z,87.54
2016-10-17T02:46:30.953Z,87.22
2016-10-17T02:46:52.670Z,86.92
2016-10-17T02:47:14.391Z,86.66
2016-10-17T02:47:36.115Z,86.36
2016-10-17T02:47:57.846Z,86.32
2016-10-17T02:48:19.563Z,85.98
2016-10-17T02:48:41.296Z,86.04
2016-10-17T02:49:03.019Z,86.04
2016-10-17T02:49:24.732Z,86.07
2016-10-17T02:49:46.447Z,86.25
2016-10-17T02:50:08.176Z,86.44
2016-10-17T02:50:29.907Z,86.54
2016-10-17T02:50:51.630Z,87.24
2016-10-17T02:51:13.348Z,87.58
2016-10-17T02:51:35.068Z,87.52
2016-10-17T02:51:56.793Z,87.78
2016-10-17T02:52:18.509Z,87.98
2016-10-17T02:52:40.239Z,87.63
2016-10-17T02:53:01.955Z,87.63
2016-10-17T02:53:23.677Z,88.21
2016-10-17T02:53:45.402Z,88.44
2016-10-17T02:54:07.123Z,88.71
2016-10-17T02:54:28.843Z,88.90
2016-10-17T02:54:50.571Z,89.02
2016-10-17T02:55:12.291Z,88.88
2016-10-17T02:55:34.134Z,88.68
2016-10-17T02:55:55.863Z,88.59
2016-10-17T02:56:17.586Z,88.46
2016-10-17T02:56:39.313Z,88.29
2016-10-17T02:57:01.029Z,88.03
2016-10-17T02:57:22.770Z,87.78
2016-10-17T02:57:44.485Z,87.66
2016-10-17T02:58:06.220Z,87.84
2016-10-17T02:58:27.939Z,88.13
2016-10-17T02:58:49.663Z,88.42
2016-10-17T02:59:11.385Z,88.86
2016-10-17T02:59:33.105Z,89.14
2016-10-17T02:59:54.841Z,89.29
2016-10-17T03:00:16.602Z,89.24
2016-10-17T03:00:38.328Z,89.31
2016-10-17T03:01:00.049Z,89.38
2016-10-17T03:01:21.781Z,89.30
2016-10-17T03:01:43.502Z,89.29
2016-10-17T03:02:05.218Z,88.99
2016-10-17T03:02:26.941Z,88.77
2016-10-17T03:02:48.669Z,88.71
2016-10-17T03:03:10.388Z,88.79
2016-10-17T03:03:32.109Z,88.71
2016-10-17T03:03:53.829Z,88.51
2016-10-17T03:04:15.554Z,88.42
2016-10-17T03:04:37.278Z,88.46
2016-10-17T03:04:58.996Z,88.20
2016-10-17T03:05:20.714Z,88.42
2016-10-17T03:05:42.455Z,88.35
2016-10-17T03:06:04.158Z,88.29
2016-10-17T03:06:25.884Z,88.05
2016-10-17T03:06:47.628Z,87.91
2016-10-17T03:07:09.340Z,87.83
2016-10-17T03:07:31.063Z,87.49
2016-10-17T03:07:52.788Z,87.40
2016-10-17T03:08:14.500Z,87.37
2016-10-17T03:08:36.226Z,87.60
2016-10-17T03:08:57.936Z,87.94
2016-10-17T03:09:19.657Z,88.33
2016-10-17T03:09:41.376Z,88.46
2016-10-17T03:10:03.091Z,88.77
2016-10-17T03:10:24.813Z,88.68
2016-10-17T03:10:46.533Z,89.07
2016-10-17T03:11:08.277Z,89.44
2016-10-17T03:11:29.997Z,89.48
2016-10-17T03:11:51.720Z,89.51
2016-10-17T03:12:13.439Z,89.56
2016-10-17T03:12:35.161Z,89.45
2016-10-17T03:12:56.879Z,89.43
2016-10-17T03:13:18.615Z,89.18
2016-10-17T03:13:40.331Z,88.66
2016-10-17T03:14:05.016Z,87.92
2016-10-17T03:14:26.737Z,87.57
2016-10-17T03:14:48.457Z,87.32
2016-10-17T03:15:10.277Z,86.93
2016-10-17T03:15:31.998Z,86.74
2016-10-17T03:15:53.722Z,86.53
2016-10-17T03:16:15.442Z,86.63
2016-10-17T03:16:37.159Z,86.92
2016-10-17T03:16:58.878Z,86.98
2016-10-17T03:17:20.601Z,86.87
2016-10-17T03:17:42.322Z,86.81
2016-10-17T03:18:04.042Z,86.80
2016-10-17T03:18:25.753Z,86.88
2016-10-17T03:18:47.473Z,86.88
2016-10-17T03:19:09.197Z,86.73
2016-10-17T03:19:30.937Z,86.53
2016-10-17T03:19:52.658Z,86.59
2016-10-17T03:20:14.378Z,87.21
2016-10-17T03:20:36.109Z,87.91
2016-10-17T03:20:57.833Z,88.47
2016-10-17T03:21:19.547Z,88.69
2016-10-17T03:21:41.278Z,88.98
2016-10-17T03:22:02.994Z,89.10
2016-10-17T03:22:24.709Z,89.16
2016-10-17T03:22:46.426Z,88.84
2016-10-17T03:23:08.146Z,88.55
2016-10-17T03:23:29.868Z,88.22
2016-10-17T03:23:51.586Z,87.69
2016-10-17T03:24:13.324Z,87.31
2016-10-17T03:24:35.039Z,87.71
2016-10-17T03:24:56.756Z,88.03
2016-10-17T03:25:18.478Z,88.27
2016-10-17T03:25:40.195Z,88.15
2016-10-17T03:26:01.922Z,88.46
2016-10-17T03:26:23.642Z,88.27
2016-10-17T03:26:45.374Z,87.99
2016-10-17T03:27:07.089Z,87.55
2016-10-17T03:27:28.809Z,87.77
2016-10-17T03:27:50.528Z,88.05
2016-10-17T03:28:12.251Z,88.37
2016-10-17T03:28:33.982Z,88.30
2016-10-17T03:28:55.696Z,88.37
2016-10-17T03:29:17.409Z,88.35
2016-10-17T03:29:39.134Z,88.33
2016-10-17T03:30:00.853Z,88.22
2016-10-17T03:30:22.582Z,88.19
2016-10-17T03:30:44.303Z,88.25
2016-10-17T03:31:06.019Z,88.10
2016-10-17T03:31:27.738Z,87.97
2016-10-17T03:31:49.460Z,87.94
2016-10-17T03:32:11.195Z,88.05
2016-10-17T03:32:32.910Z,88.11
2016-10-17T03:32:54.632Z,88.27
2016-10-17T03:33:16.355Z,88.20
2016-10-17T03:33:38.072Z,87.94
2016-10-17T03:33:59.794Z,87.91
2016-10-17T03:34:21.508Z,87.89
2016-10-17T03:34:43.233Z,87.68
2016-10-17T03:35:04.977Z,87.73
2016-10-17T03:35:26.684Z,87.83
2016-10-17T03:35:48.404Z,87.89
2016-10-17T03:36:10.122Z,88.04
2016-10-17T03:36:31.840Z,88.15
2016-10-17T03:36:53.570Z,88.42
2016-10-17T03:37:15.294Z,88.63
2016-10-17T03:37:37.020Z,88.86
2016-10-17T03:37:58.756Z,88.94
2016-10-17T03:38:20.474Z,89.02
2016-10-17T03:38:42.198Z,89.06
2016-10-17T03:39:03.917Z,88.67
2016-10-17T03:39:25.640Z,88.45
2016-10-17T03:39:47.414Z,88.19
2016-10-17T03:40:09.137Z,88.24
2016-10-17T03:40:30.865Z,88.38
2016-10-17T03:40:52.586Z,88.54
2016-10-17T03:41:14.314Z,88.63
2016-10-17T03:41:36.029Z,88.73
2016-10-17T03:41:57.761Z,88.67
2016-10-17T03:42:19.479Z,88.18
2016-10-17T03:42:41.224Z,87.95
2016-10-17T03:43:02.943Z,87.72
2016-10-17T03:43:24.660Z,87.28
2016-10-17T03:43:46.387Z,87.27
2016-10-17T03:44:08.111Z,87.22
2016-10-17T03:44:29.833Z,87.25
2016-10-17T03:44:51.560Z,87.11
2016-10-17T03:45:13.293Z,87.04
2016-10-17T03:45:35.015Z,87.20
2016-10-17T03:45:56.738Z,87.36
2016-10-17T03:46:18.459Z,87.70
2016-10-17T03:46:40.182Z,88.02
2016-10-17T03:47:01.901Z,87.73
2016-10-17T03:47:23.620Z,87.60
2016-10-17T03:47:45.340Z,87.59
2016-10-17T03:48:07.069Z,87.77
2016-10-17T03:48:28.798Z,88.21
2016-10-17T03:48:50.517Z,88.48
2016-10-17T03:49:12.238Z,88.56
2016-10-17T03:49:33.957Z,88.40
2016-10-17T03:49:55.678Z,88.36
2016-10-17T03:50:17.398Z,88.08
2016-10-17T03:50:39.120Z,87.88
2016-10-17T03:51:00.842Z,87.39
2016-10-17T03:51:22.565Z,87.07
2016-10-17T03:51:44.290Z,87.15
2016-10-17T03:52:06.016Z,87.54
2016-10-17T03:52:27.739Z,87.87
2016-10-17T03:52:49.461Z,88.12
2016-10-17T03:53:11.180Z,88.47
2016-10-17T03:53:32.914Z,88.58
2016-10-17T03:53:54.632Z,88.66
2016-10-17T03:54:16.356Z,88.83
2016-10-17T03:54:38.072Z,88.88
2016-10-17T03:54:59.800Z,88.61
2016-10-17T03:55:21.514Z,88.54
2016-10-17T03:55:43.255Z,88.56
2016-10-17T03:56:04.980Z,88.40
2016-10-17T03:56:26.720Z,88.03
2016-10-17T03:56:48.432Z,87.90
2016-10-17T03:57:10.148Z,87.93
2016-10-17T03:57:31.865Z,87.94
2016-10-17T03:57:53.612Z,87.95
2016-10-17T03:58:15.339Z,87.89
2016-10-17T03:58:37.065Z,87.84
2016-10-17T03:58:58.791Z,87.81
2016-10-17T03:59:20.508Z,87.70
2016-10-17T03:59:42.244Z,87.75
2016-10-17T04:00:03.976Z,87.98
2016-10-17T04:00:25.698Z,88.32
2016-10-17T04:00:47.429Z,88.58
2016-10-17T04:01:09.145Z,88.71
2016-10-17T04:01:30.864Z,88.90
2016-10-17T04:01:52.581Z,88.65
2016-10-17T04:02:14.304Z,88.74
2016-10-17T04:02:36.025Z,88.92
2016-10-17T04:02:57.750Z,89.10
2016-10-17T04:03:19.472Z,89.45
2016-10-17T04:03:41.194Z,89.60
2016-10-17T04:04:02.920Z,89.45
2016-10-17T04:04:24.650Z,89.42
2016-10-17T04:04:46.416Z,89.25
2016-10-17T04:05:08.140Z,89.21
2016-10-17T04:05:29.859Z,89.31
2016-10-17T04:05:51.577Z,89.27
2016-10-17T04:06:13.300Z,89.49
2016-10-17T04:06:35.021Z,89.44
2016-10-17T04:06:56.744Z,89.30
2016-10-17T04:07:18.469Z,89.18
2016-10-17T04:07:40.185Z,89.49
2016-10-17T04:08:01.910Z,89.49
2016-10-17T04:08:23.645Z,89.41
2016-10-17T04:08:45.370Z,89.12
2016-10-17T04:09:07.187Z,88.50
2016-10-17T04:09:28.921Z,88.18
2016-10-17T04:09:50.652Z,87.79
2016-10-17T04:10:12.373Z,87.30
2016-10-17T04:10:34.094Z,87.24
2016-10-17T04:10:55.813Z,87.32
2016-10-17T04:11:17.544Z,87.59
2016-10-17T04:11:39.256Z,87.77
2016-10-17T04:12:00.986Z,88.04
2016-10-17T04:12:22.706Z,88.16
2016-10-17T04:12:44.420Z,88.25
2016-10-17T04:13:06.147Z,88.42
2016-10-17T04:13:27.874Z,88.57
2016-10-17T04:13:49.594Z,88.62
2016-10-17T04:14:11.319Z,88.74
2016-10-17T04:14:33.041Z,88.87
2016-10-17T04:14:54.761Z,89.07
2016-10-17T04:15:16.490Z,88.90
2016-10-17T04:15:38.218Z,89.23
2016-10-17T04:15:59.940Z,89.25
2016-10-17T04:16:21.678Z,88.93
2016-10-17T04:16:43.399Z,88.78
2016-10-17T04:17:05.118Z,88.44
2016-10-17T04:17:26.844Z,88.29
2016-10-17T04:17:48.566Z,87.85
2016-10-17T04:18:10.291Z,87.73
2016-10-17T04:18:32.012Z,87.73
2016-10-17T04:18:53.733Z,88.24
2016-10-17T04:19:15.459Z,88.86
2016-10-17T04:19:37.179Z,89.16
2016-10-17T04:19:58.899Z,89.28
2016-10-17T04:20:20.625Z,89.34
2016-10-17T04:20:42.345Z,89.53
2016-10-17T04:21:04.082Z,89.86
2016-10-17T04:21:25.798Z,89.97
2016-10-17T04:21:47.520Z,90.09
2016-10-17T04:22:09.239Z,90.19
2016-10-17T04:22:30.960Z,90.33
2016-10-17T04:23:02.221Z,90.08
2016-10-17T04:23:23.941Z,90.09
2016-10-17T04:23:45.660Z,89.87
2016-10-17T04:24:07.395Z,89.54
2016-10-17T04:24:29.119Z,89.41
2016-10-17T04:24:50.846Z,89.15
2016-10-17T04:25:12.573Z,88.74
2016-10-17T04:25:34.299Z,88.59
2016-10-17T04:25:56.016Z,88.85
2016-10-17T04:26:17.739Z,88.61
2016-10-17T04:26:39.467Z,88.75
2016-10-17T04:27:01.190Z,88.79
2016-10-17T04:27:22.909Z,88.80
2016-10-17T04:27:44.628Z,89.04
2016-10-17T04:28:06.349Z,89.30
2016-10-17T04:28:28.063Z,89.27
2016-10-17T04:28:49.788Z,89.15
2016-10-17T04:29:11.518Z,89.13
2016-10-17T04:29:38.015Z,89.28
2016-10-17T04:29:59.739Z,89.10
2016-10-17T04:30:21.466Z,88.83
2016-10-17T04:30:43.207Z,88.34
2016-10-17T04:31:04.901Z,88.06
2016-10-17T04:31:26.625Z,87.80
2016-10-17T04:31:48.355Z,87.76
2016-10-17T04:32:10.077Z,88.10
2016-10-17T04:32:31.799Z,88.40
2016-10-17T04:32:53.514Z,88.52
2016-10-17T04:33:15.255Z,88.50
2016-10-17T04:33:36.977Z,88.19
2016-10-17T04:33:58.695Z,88.25
2016-10-17T04:34:20.412Z,87.95
2016-10-17T04:34:42.131Z,88.03
2016-10-17T04:35:03.859Z,88.69
2016-10-17T04:35:25.596Z,88.88
2016-10-17T04:35:47.316Z,88.93
2016-10-17T04:36:09.031Z,89.11
2016-10-17T04:36:30.752Z,89.21
2016-10-17T04:36:52.483Z,88.91
2016-10-17T04:37:14.205Z,89.24
2016-10-17T04:37:35.936Z,89.13
2016-10-17T04:37:57.666Z,89.29
2016-10-17T04:38:19.391Z,89.60
2016-10-17T04:38:41.112Z,89.52
2016-10-17T04:39:02.829Z,89.47
2016-10-17T04:39:24.550Z,89.45
2016-10-17T04:39:46.281Z,88.96
2016-10-17T04:40:08.010Z,88.44
2016-10-17T04:40:29.729Z,88.28